Time;durP1;ratioP1;P1;durP2;ratioP2;P2;SDS_P1;SDS_P2;PMS_P1;PMS_P2;Temp;Humidity;BMP_temperature;BMP_pressure;BME280_temperature;BME280_humidity;BME280_pressure;Samples;Min_cycle;Max_cycle;Signal;HPM_P1;HPM_P2
2023/08/02 07:08:09;;;;;;;6.50;3.80;;;19.20;99.90;;;;;;5714459;23;20309;-84
2023/08/02 07:10:41;;;;;;;6.90;3.43;;;19.30;99.90;;;;;;4925744;29;20190;-84
2023/08/02 07:13:17;;;;;;;5.00;3.50;;;19.20;99.90;;;;;;4950373;29;20222;-84
2023/08/02 07:29:17;;;;;;;3.23;2.77;;;19.80;99.90;;;;;;5812925;23;20261;-84
2023/08/02 07:31:48;;;;;;;4.17;3.13;;;19.90;99.90;;;;;;4940618;29;20233;-84
2023/08/02 07:34:15;;;;;;;5.73;3.30;;;20.00;99.90;;;;;;4940188;29;20277;-83
2023/08/02 07:36:51;;;;;;;6.63;3.20;;;20.10;99.90;;;;;;4939932;29;20229;-82
2023/08/02 07:39:21;;;;;;;5.23;3.27;;;20.10;99.90;;;;;;4940673;29;20549;-82
2023/08/02 07:41:48;;;;;;;5.73;3.20;;;20.30;99.90;;;;;;4940283;29;20198;-82
2023/08/02 07:44:21;;;;;;;4.37;3.00;;;20.30;99.90;;;;;;4940654;29;20198;-84
2023/08/02 07:46:50;;;;;;;5.13;3.20;;;20.30;99.90;;;;;;4940409;29;20221;-83
2023/08/02 07:57:36;;;;;;;6.53;3.00;;;20.40;99.90;;;;;;5092719;23;20234;-83
2023/08/02 08:00:39;;;;;;;4.53;2.87;;;20.50;99.90;;;;;;4946608;29;20676;-84
2023/08/02 08:03:21;;;;;;;6.27;3.20;;;20.30;99.90;;;;;;4941110;29;20301;-83
2023/08/02 08:06:14;;;;;;;4.57;2.90;;;20.20;99.90;;;;;;4956481;29;20175;-83
2023/08/02 08:08:50;;;;;;;4.10;2.80;;;20.30;99.90;;;;;;4955999;29;20221;-83
2023/08/02 08:11:21;;;;;;;3.97;2.90;;;20.40;99.90;;;;;;4940012;29;20194;-82
2023/08/02 15:43:04;;;;;;;1.95;1.58;;;27.90;93.30;;;;;;6008860;23;20194;31
2023/08/02 15:49:08;;;;;;;4.13;1.70;;;26.90;94.60;;;;;;5191732;23;20546;-81
2023/08/02 15:51:47;;;;;;;4.40;2.20;;;26.00;95.60;;;;;;4940105;29;20214;-84
2023/08/02 15:54:29;;;;;;;4.47;1.98;;;25.80;96.60;;;;;;4955916;29;20509;-89
2023/08/02 15:57:00;;;;;;;2.90;2.20;;;25.90;96.60;;;;;;4957419;29;20298;-84
2023/08/02 15:59:30;;;;;;;1.80;1.60;;;26.00;96.30;;;;;;4957064;29;20186;-83
2023/08/02 16:02:09;;;;;;;3.35;1.75;;;26.10;96.70;;;;;;4941240;29;20313;-87
2023/08/02 16:04:39;;;;;;;2.80;1.80;;;26.40;96.10;;;;;;4955960;29;20528;-86
2023/08/02 16:07:11;;;;;;;5.32;2.53;;;26.80;95.50;;;;;;4957029;29;20225;-86
2023/08/02 16:09:44;;;;;;;4.90;2.10;;;27.80;95.00;;;;;;4956245;29;20236;-84
2023/08/02 16:12:16;;;;;;;4.13;1.95;;;27.80;94.30;;;;;;4956295;29;20624;-86
2023/08/02 16:14:46;;;;;;;2.63;1.73;;;27.40;94.80;;;;;;4957239;29;20308;-86
2023/08/02 16:17:12;;;;;;;4.88;1.77;;;26.90;94.80;;;;;;4956031;29;20656;-83
2023/08/02 16:19:43;;;;;;;3.30;2.00;;;26.90;95.60;;;;;;4957591;29;20179;-84
2023/08/02 16:22:11;;;;;;;2.70;1.83;;;27.70;95.20;;;;;;4955773;29;20245;-84
2023/08/02 16:24:41;;;;;;;4.10;2.13;;;28.00;94.00;;;;;;4956545;29;20281;-86
2023/08/02 16:27:08;;;;;;;2.60;1.83;;;27.80;93.60;;;;;;4957712;28;20220;-86
2023/08/02 16:29:36;;;;;;;2.95;1.63;;;27.20;94.20;;;;;;4940859;29;20644;-83
2023/08/02 16:32:04;;;;;;;4.32;2.00;;;27.00;94.50;;;;;;4955414;29;20549;-87
2023/08/02 16:34:31;;;;;;;2.17;1.80;;;26.30;95.30;;;;;;4956021;29;20221;-88
2023/08/02 16:36:58;;;;;;;3.35;1.60;;;26.00;95.80;;;;;;4957226;29;20507;-86
2023/08/02 16:39:25;;;;;;;2.45;1.80;;;26.00;96.20;;;;;;4957570;29;20582;-87
2023/08/02 16:41:52;;;;;;;4.05;2.10;;;26.10;96.50;;;;;;4956685;29;20210;-88
2023/08/02 16:44:19;;;;;;;3.88;2.00;;;25.90;96.70;;;;;;4955857;29;20601;-88
2023/08/02 16:46:47;;;;;;;4.28;1.95;;;25.80;97.10;;;;;;4956443;29;20288;-88
2023/08/02 16:49:16;;;;;;;3.58;2.00;;;25.80;97.40;;;;;;4941001;29;20385;-86
2023/08/02 16:51:44;;;;;;;2.67;2.00;;;25.60;97.50;;;;;;4956043;29;20503;-85
2023/08/02 16:54:11;;;;;;;8.23;2.78;;;25.50;97.90;;;;;;4956433;29;20214;-84
2023/08/02 16:56:38;;;;;;;6.38;2.10;;;25.40;97.90;;;;;;4956081;29;20577;-83
2023/08/02 16:59:05;;;;;;;4.00;2.00;;;25.40;98.10;;;;;;4956179;29;20593;-84
2023/08/02 17:01:33;;;;;;;3.05;2.17;;;25.30;98.20;;;;;;4957065;29;20229;-85
2023/08/02 17:04:00;;;;;;;2.88;2.30;;;25.20;98.30;;;;;;4957096;29;20206;-83
2023/08/02 17:06:27;;;;;;;3.67;1.80;;;25.00;98.60;;;;;;4955887;29;20209;-84
2023/08/02 17:08:54;;;;;;;2.85;2.10;;;24.90;98.90;;;;;;4956012;29;20214;-86
2023/08/02 17:11:23;;;;;;;4.05;2.10;;;25.00;99.20;;;;;;4957201;29;20191;-84
2023/08/02 17:13:50;;;;;;;3.55;2.10;;;25.00;99.40;;;;;;4955264;29;20230;-83
2023/08/02 17:16:17;;;;;;;2.80;2.00;;;24.90;99.70;;;;;;4959242;28;20202;-83
2023/08/02 17:18:45;;;;;;;3.42;2.45;;;24.80;99.80;;;;;;4959940;29;20214;-84
2023/08/02 17:21:12;;;;;;;4.90;2.40;;;24.70;99.90;;;;;;4943534;29;20198;-84
2023/08/02 17:23:39;;;;;;;4.35;2.38;;;24.60;99.60;;;;;;4959068;29;20218;-87
2023/08/02 17:26:12;;;;;;;6.13;2.40;;;24.50;99.90;;;;;;4959609;29;20175;-86
2023/08/02 17:28:39;;;;;;;3.20;2.60;;;24.40;99.90;;;;;;4960115;29;20232;-84
2023/08/02 17:31:11;;;;;;;8.48;2.80;;;24.40;99.90;;;;;;4960771;29;20648;-86
2023/08/02 17:33:43;;;;;;;5.18;2.83;;;24.30;99.90;;;;;;4959330;29;20214;-85
2023/08/02 17:36:10;;;;;;;4.25;2.50;;;24.30;99.90;;;;;;4958724;29;20285;-83
2023/08/02 17:38:37;;;;;;;3.85;2.42;;;24.20;99.90;;;;;;4959276;29;20490;-86
2023/08/02 17:41:04;;;;;;;3.83;2.38;;;24.10;99.90;;;;;;4959855;29;20194;-84
2023/08/02 17:43:31;;;;;;;2.90;2.40;;;24.10;99.90;;;;;;4959112;29;20210;-85
2023/08/02 17:45:58;;;;;;;4.93;2.80;;;24.00;99.90;;;;;;4960362;29;20277;-84
2023/08/02 17:48:25;;;;;;;6.50;4.57;;;23.90;99.90;;;;;;4959880;28;20253;-83
2023/08/02 17:50:57;;;;;;;4.03;2.80;;;23.80;99.90;;;;;;4959926;29;20220;-84
2023/08/02 17:53:25;;;;;;;3.93;2.47;;;23.80;99.90;;;;;;4959066;29;20237;-86
2023/08/02 17:55:58;;;;;;;3.67;2.67;;;23.80;99.90;;;;;;4958533;29;20214;-87
2023/08/02 17:58:27;;;;;;;4.40;2.55;;;23.70;99.90;;;;;;4958722;29;20218;-85
2023/08/02 18:01:09;;;;;;;5.57;2.50;;;23.70;99.90;;;;;;4958420;29;20194;-85
2023/08/02 18:03:38;;;;;;;4.05;2.70;;;23.60;99.90;;;;;;4959711;29;20242;-85
2023/08/02 18:06:05;;;;;;;4.00;2.87;;;23.50;99.90;;;;;;4959148;29;20190;-83
2023/08/02 18:08:32;;;;;;;4.40;2.97;;;23.40;99.90;;;;;;4957864;29;20222;-85
2023/08/02 18:11:02;;;;;;;4.25;2.70;;;23.30;99.90;;;;;;4958264;29;20202;-86
2023/08/02 18:13:30;;;;;;;4.40;2.60;;;23.30;99.90;;;;;;4958757;29;20234;-86
2023/08/02 18:15:59;;;;;;;3.30;2.50;;;23.20;99.90;;;;;;4957524;29;20733;-81
2023/08/02 18:18:27;;;;;;;5.78;3.20;;;23.20;99.90;;;;;;4958122;29;20214;-85
2023/08/02 18:20:54;;;;;;;5.73;3.40;;;23.10;99.90;;;;;;4958175;29;20198;-86
2023/08/02 18:23:21;;;;;;;4.83;2.87;;;23.00;99.90;;;;;;4958258;29;20472;-88
2023/08/02 18:25:50;;;;;;;6.13;3.30;;;23.00;99.90;;;;;;4958041;29;20206;-86
2023/08/02 18:28:20;;;;;;;8.33;3.33;;;22.90;99.90;;;;;;4958892;29;20241;-86
2023/08/02 18:31:01;;;;;;;6.17;3.10;;;22.80;99.90;;;;;;4958579;29;20196;-86
2023/08/02 18:33:32;;;;;;;5.90;3.30;;;22.70;99.90;;;;;;4958256;29;20285;-85
2023/08/02 18:36:10;;;;;;;5.17;3.00;;;22.70;99.90;;;;;;4958565;29;20221;-86
2023/08/02 18:38:39;;;;;;;3.50;3.10;;;22.60;99.90;;;;;;4958070;29;20634;-85
2023/08/02 18:41:18;;;;;;;5.20;3.07;;;22.60;99.90;;;;;;4959441;29;20539;-82
2023/08/02 18:43:47;;;;;;;4.03;2.80;;;22.50;99.90;;;;;;4958235;29;20616;-83
2023/08/02 18:46:16;;;;;;;3.93;2.60;;;22.40;99.90;;;;;;4958269;29;20206;-84
2023/08/02 18:48:46;;;;;;;4.67;2.83;;;22.30;99.90;;;;;;4957478;28;20246;-82
2023/08/02 18:51:16;;;;;;;4.90;2.90;;;22.40;99.90;;;;;;4957613;29;20292;-84
2023/08/02 18:53:48;;;;;;;5.60;2.90;;;22.20;99.90;;;;;;4957277;29;20463;-82
2023/08/02 18:56:17;;;;;;;5.60;2.90;;;22.20;99.90;;;;;;4958610;29;20293;-85
2023/08/02 18:58:45;;;;;;;5.03;3.00;;;22.20;99.90;;;;;;4957674;29;20621;-85
2023/08/02 19:01:12;;;;;;;3.57;2.87;;;22.10;99.90;;;;;;4957217;29;20202;-86
2023/08/02 19:03:40;;;;;;;5.40;3.03;;;22.10;99.90;;;;;;4957374;29;20214;-85
2023/08/02 19:06:09;;;;;;;6.90;3.50;;;22.00;99.90;;;;;;4957221;29;20545;-82
2023/08/02 19:08:38;;;;;;;5.07;3.27;;;22.00;99.90;;;;;;4958449;29;20214;-84
2023/08/02 19:11:22;;;;;;;6.03;3.13;;;22.00;99.90;;;;;;4864516;29;20204;-82
2023/08/02 19:13:50;;;;;;;6.77;3.50;;;21.90;99.90;;;;;;4879759;29;20244;-85
2023/08/02 19:16:17;;;;;;;5.30;3.50;;;21.90;99.90;;;;;;4879994;29;20288;-82
2023/08/02 19:18:45;;;;;;;5.73;3.43;;;21.80;99.90;;;;;;4879641;29;20315;-84
2023/08/02 19:21:14;;;;;;;4.97;3.60;;;21.80;99.90;;;;;;4895494;29;20288;-85
2023/08/02 19:23:45;;;;;;;8.83;3.20;;;21.70;99.90;;;;;;4864386;29;20276;-86
2023/08/02 19:26:16;;;;;;;5.97;3.27;;;21.80;99.90;;;;;;4879800;29;20209;-84
2023/08/02 19:28:43;;;;;;;6.20;3.20;;;21.70;99.90;;;;;;4899352;29;20633;-88
2023/08/02 19:31:10;;;;;;;3.97;3.13;;;21.70;99.90;;;;;;4956294;29;20190;-86
2023/08/02 19:33:44;;;;;;;5.30;3.20;;;21.70;99.90;;;;;;4957112;29;20305;-86
2023/08/02 19:36:21;;;;;;;6.43;3.30;;;21.60;99.90;;;;;;4957770;29;20512;-86
2023/08/02 19:38:49;;;;;;;4.77;3.43;;;21.60;99.90;;;;;;4957059;28;20309;-85
2023/08/02 21:35:46;;;;;;;8.40;4.60;;;20.30;99.90;;;;;;5374395;23;20601;-82
